Pierre Regional Airport
KPIR : now visible

Airfield :











YOU CAN JOIN US ON...

 
LOGIN :

Register | Disclaimer

   EN    FR    IT 

 









Legend :    VFR   Marginal VFR   IFR   Intensive IFR   Very Intensive IFR
Visi :
Ceiling :
>= 8 km
>= 3000ft
5 to 8 km
1000 to 3000 ft
1500m to 5 km
500 to 1000 ft
800 to 1500m
200 to 500 ft
< 800m
< 200 ft
Symbols :   Thunderstorms  Fog  Heavy snow  Heavy precipitations  Wind > 20 kt






- Airport Elevation : 1744 ft
- IATA code : PIR


KPIR - Pierre Regional

CURRENT METAR :
  • 061453Z AUTO 16013KT 10SM OVC007 M03/M05 A3027 RMK AO2 SLP271 T10331050 56011

EXPIRED METARs :
  • 061353Z AUTO 17011KT 10SM OVC008 M03/M05 A3028 RMK AO2 SLP275 T10331050
  • 061253Z AUTO 17009KT 10SM OVC009 M03/M05 A3028 RMK AO2 SLP277 T10331050

TAF KPIR
Valid from the 06 at 12:00 until the 07 at 12:00 UTC


061120Z 0612/0712 16009KT P6SM OVC010
FM061500 17006KT P6SM BKN035
FM070600 VRB03KT 4SM BR BKN030



MET'MAP, your aeronautical weather chart ! - Copyright ORBIFLY December 2007 - Disclaimer

ORBIFLY MET'MAP TEAM :

Programming & Development : Alexandra Zaïnal
Concept & original design : Baudouin d'Aumeries
Assistance for programming : Marc-Olivier Méhu
Technical & hardware support : Manuel Goepfert

Contact : metmap@orbifly.com




SOURCES & CREDITS :

   NOAA       Earth
Advisory